createdAt,value
2018-06-02T00:02:48.911Z,13.58
2018-06-02T00:08:44.003Z,16.56
2018-06-02T00:14:38.980Z,16.68
2018-06-02T00:20:33.979Z,17.93
2018-06-02T00:26:28.976Z,13.37
2018-06-02T00:32:23.946Z,15.49
2018-06-02T00:38:18.979Z,14.72
2018-06-02T00:44:13.914Z,19.01
2018-06-02T00:50:08.918Z,18.37
2018-06-02T00:56:03.949Z,20.03
2018-06-02T01:01:58.936Z,17.45
2018-06-02T01:07:53.950Z,19.26
2018-06-02T01:13:48.942Z,21.24
2018-06-02T01:19:43.916Z,21.49
2018-06-02T01:25:38.924Z,15.39
2018-06-02T01:31:33.989Z,16.09
2018-06-02T01:37:28.950Z,17.62
2018-06-02T01:43:23.945Z,15.89
2018-06-02T01:49:18.953Z,16.42
2018-06-02T01:55:13.975Z,18.39
2018-06-02T02:01:08.938Z,15.18
2018-06-02T02:07:03.935Z,18.53
2018-06-02T02:12:58.935Z,24.89
2018-06-02T02:18:53.964Z,24.99
2018-06-02T02:24:48.955Z,26.21
2018-06-02T02:30:44.023Z,25.5
2018-06-02T02:36:38.974Z,24.32
2018-06-02T02:42:33.987Z,25.33
2018-06-02T02:48:29.002Z,20.3
2018-06-02T02:54:23.968Z,20.24
2018-06-02T03:00:18.977Z,21.85
2018-06-02T03:06:14.025Z,19.74
2018-06-02T03:12:08.999Z,22.5
2018-06-02T03:18:03.976Z,15.41
2018-06-02T03:23:58.980Z,19.58
2018-06-02T03:29:53.960Z,16.83
2018-06-02T03:35:48.945Z,13.94
2018-06-02T03:41:43.957Z,13.1
2018-06-02T03:47:38.974Z,14.28
2018-06-02T03:53:33.956Z,12.87
2018-06-02T03:59:29.001Z,13.74
2018-06-02T04:05:24.053Z,16.94
2018-06-02T04:11:18.998Z,12.4
2018-06-02T04:17:13.969Z,12.79
2018-06-02T04:23:09.019Z,10.78
2018-06-02T04:29:04.003Z,12.71
2018-06-02T04:34:58.974Z,12.43
2018-06-02T04:40:53.992Z,13.28
2018-06-02T04:46:48.953Z,12.91
2018-06-02T04:52:43.940Z,17.21
2018-06-02T04:58:38.954Z,21.84
2018-06-02T05:04:33.979Z,21.39
2018-06-02T05:10:28.945Z,17.49
2018-06-02T05:16:23.982Z,15.84
2018-06-02T05:22:18.952Z,13.03
2018-06-02T05:28:13.977Z,16.37
2018-06-02T05:34:08.957Z,18.23
2018-06-02T05:40:04.002Z,18.95
2018-06-02T05:45:58.978Z,16.1
2018-06-02T05:51:54.010Z,17.64
2018-06-02T05:57:48.941Z,19.07
2018-06-02T06:03:43.998Z,19.16
2018-06-02T06:09:38.989Z,24.29
2018-06-02T06:15:33.983Z,24.23
2018-06-02T06:21:28.984Z,21.95
2018-06-02T06:27:23.956Z,22.86
2018-06-02T06:33:19.063Z,21.83
2018-06-02T06:39:14.023Z,26.36
2018-06-02T06:45:08.960Z,23.96
2018-06-02T06:51:04.029Z,21.61
2018-06-02T06:56:59.634Z,24.44
2018-06-02T07:02:53.984Z,19.67
2018-06-02T07:08:48.973Z,21.56
2018-06-02T07:14:44.054Z,21.86
2018-06-02T07:20:38.984Z,20.54
2018-06-02T07:26:33.968Z,19.18
2018-06-02T07:32:28.988Z,15.13
2018-06-02T07:38:24.003Z,14.48
2018-06-02T07:44:19.016Z,15.57
2018-06-02T07:50:14.020Z,14.55
2018-06-02T07:56:09.071Z,14.34
2018-06-02T08:02:04.059Z,14.74
2018-06-02T08:07:59.059Z,12.35
2018-06-02T08:13:54.015Z,15.43
2018-06-02T08:19:48.995Z,14.53
2018-06-02T08:25:44.013Z,13.92
2018-06-02T08:31:38.994Z,15.41
2018-06-02T08:37:34.010Z,13.31
2018-06-02T08:43:29.007Z,12.75
2018-06-02T08:49:24.047Z,14.49
2018-06-02T08:55:19.036Z,12.8
2018-06-02T09:01:14.031Z,11.43
2018-06-02T09:07:09.020Z,11.75
2018-06-02T09:13:04.065Z,12.86
2018-06-02T09:18:59.011Z,15.63
2018-06-02T09:24:54.026Z,14.21
2018-06-02T09:30:49.020Z,12.27
2018-06-02T09:36:44.037Z,10.91
2018-06-02T09:42:39.055Z,12.89
2018-06-02T09:48:34.017Z,14.22
2018-06-02T09:54:29.028Z,12.19
2018-06-02T10:00:24.016Z,11.83
2018-06-02T10:06:19.062Z,12.2
2018-06-02T10:12:14.078Z,10.4
2018-06-02T10:18:09.049Z,14.91
2018-06-02T10:24:04.661Z,12.96
2018-06-02T10:29:59.020Z,13.65
2018-06-02T10:35:54.078Z,12.27
2018-06-02T10:41:49.114Z,13.69
2018-06-02T10:47:44.101Z,12.37
2018-06-02T10:53:39.099Z,9.37
2018-06-02T10:59:34.087Z,12.52
2018-06-02T11:05:29.046Z,8.53
2018-06-02T11:11:24.107Z,8.66
2018-06-02T11:17:19.120Z,9.4
2018-06-02T11:23:14.067Z,13.43
2018-06-02T11:29:09.114Z,12.81
2018-06-02T11:35:04.068Z,10.2
2018-06-02T11:40:59.055Z,10.31
2018-06-02T11:46:54.067Z,9.87
2018-06-02T11:52:49.145Z,12.87
2018-06-02T11:58:44.169Z,8.88
2018-06-02T12:04:39.079Z,11.99
2018-06-02T12:10:34.096Z,8.84
2018-06-02T12:16:29.161Z,8.42
2018-06-02T12:22:24.116Z,10.65
2018-06-02T12:28:19.138Z,7.06
2018-06-02T12:34:14.112Z,8.01
2018-06-02T12:40:09.111Z,9.98
2018-06-02T12:46:04.106Z,6.96
2018-06-02T12:51:59.166Z,7.53
2018-06-02T12:57:54.155Z,11.36
2018-06-02T13:03:49.127Z,7.59
2018-06-02T13:09:44.124Z,6.46
2018-06-02T13:15:39.090Z,7.53
2018-06-02T13:21:34.348Z,7.93
2018-06-02T13:27:29.132Z,6.69
2018-06-02T13:33:24.196Z,8.14
2018-06-02T13:39:19.110Z,6.21
2018-06-02T13:45:14.142Z,10.61
2018-06-02T13:51:09.114Z,8.71
2018-06-02T13:57:04.144Z,6.77
2018-06-02T14:02:59.153Z,6.5
2018-06-02T14:08:54.138Z,4.33
2018-06-02T14:14:49.138Z,7.27
2018-06-02T14:20:44.164Z,5.78
2018-06-02T14:26:39.209Z,6
2018-06-02T14:32:34.166Z,7.57
2018-06-02T14:38:29.147Z,5.53
2018-06-02T14:44:24.195Z,8.21
2018-06-02T14:50:19.144Z,6.83
2018-06-02T14:56:14.241Z,5.23
2018-06-02T15:02:09.199Z,7.35
2018-06-02T15:08:04.147Z,3.94
2018-06-02T15:13:59.163Z,5.08
2018-06-02T15:19:54.152Z,6.12
2018-06-02T15:25:49.215Z,6.95
2018-06-02T15:31:44.193Z,6.05
2018-06-02T15:37:39.202Z,6.62
2018-06-02T15:43:34.170Z,3.52
2018-06-02T15:49:29.287Z,3.92
2018-06-02T15:55:24.241Z,3.74
2018-06-02T16:01:19.208Z,4.9
2018-06-02T16:07:14.196Z,3.44
2018-06-02T16:13:09.218Z,7.17
2018-06-02T16:19:04.195Z,7.39
2018-06-02T16:24:59.208Z,3.8
2018-06-02T16:30:54.178Z,2.95
2018-06-02T16:36:49.220Z,3.69
2018-06-02T16:42:44.209Z,7.1
2018-06-02T16:48:39.239Z,4.77
2018-06-02T16:54:34.210Z,3.39
2018-06-02T17:00:29.200Z,4.47
2018-06-02T17:06:24.212Z,4.64
2018-06-02T17:12:19.321Z,4.02
2018-06-02T17:18:14.232Z,6.23
2018-06-02T17:24:09.259Z,3.99
2018-06-02T17:30:04.247Z,5.72
2018-06-02T17:35:59.303Z,6.96
2018-06-02T17:41:54.259Z,3.39
2018-06-02T17:47:49.268Z,6.63
2018-06-02T17:53:44.235Z,4.13
2018-06-02T17:59:39.255Z,7.07
2018-06-02T18:05:34.221Z,3.81
2018-06-02T18:11:29.227Z,5.2
2018-06-02T18:17:24.272Z,4.14
2018-06-02T18:23:19.274Z,4.44
2018-06-02T18:29:14.233Z,4.13
2018-06-02T18:35:09.285Z,4.98
2018-06-02T18:41:04.239Z,4.47
2018-06-02T18:46:59.294Z,7.36
2018-06-02T18:52:54.224Z,5.28
2018-06-02T18:58:49.269Z,5.14
2018-06-02T19:04:44.275Z,4.67
2018-06-02T19:10:39.286Z,3.97
2018-06-02T19:16:34.286Z,6.13
2018-06-02T19:22:29.264Z,16.18
2018-06-02T19:28:24.252Z,28.57
2018-06-02T19:34:19.259Z,48.69
2018-06-02T19:40:14.347Z,40.26
2018-06-02T19:46:09.266Z,33.3
2018-06-02T19:52:04.293Z,51.35
2018-06-02T19:57:59.299Z,12.72
2018-06-02T20:03:54.285Z,8.61
2018-06-02T20:09:49.270Z,13.02
2018-06-02T20:15:44.362Z,9.72
2018-06-02T20:21:39.298Z,6
2018-06-02T20:27:34.277Z,6.07
2018-06-02T20:33:29.299Z,6.5
2018-06-02T20:39:24.297Z,20
2018-06-02T20:45:19.338Z,21.97
2018-06-02T20:51:14.339Z,15.15
2018-06-02T20:57:09.310Z,11.44
2018-06-02T21:03:04.305Z,9.2
2018-06-02T21:08:59.364Z,5.06
2018-06-02T21:14:54.387Z,4.99
2018-06-02T21:20:49.325Z,5.96
2018-06-02T21:26:44.334Z,6.45
2018-06-02T21:32:39.282Z,6.62
2018-06-02T21:38:34.331Z,4.71
2018-06-02T21:44:29.323Z,5.69
2018-06-02T21:50:24.311Z,5.81
2018-06-02T21:56:19.319Z,4.9
2018-06-02T22:02:14.302Z,4.25
2018-06-02T22:08:09.345Z,7.42
2018-06-02T22:14:04.313Z,4.25
2018-06-02T22:19:59.373Z,4.5
2018-06-02T22:25:54.323Z,4.76
2018-06-02T22:31:49.295Z,4.43
2018-06-02T22:37:44.344Z,5.8
2018-06-02T22:43:39.343Z,6.06
2018-06-02T22:49:34.304Z,3.44
2018-06-02T22:55:29.318Z,3.84
2018-06-02T23:01:24.356Z,4.79
2018-06-02T23:07:19.316Z,4.49
2018-06-02T23:13:14.329Z,5.13
2018-06-02T23:19:09.339Z,5.3
2018-06-02T23:25:04.293Z,5.41
2018-06-02T23:30:59.342Z,5.16
2018-06-02T23:36:54.405Z,7.91
2018-06-02T23:42:49.323Z,5.49
2018-06-02T23:48:44.348Z,6.02
2018-06-02T23:54:39.348Z,7.74
